Time;durP1;ratioP1;P1;durP2;ratioP2;P2;SDS_P1;SDS_P2;PMS_P1;PMS_P2;Temp;Humidity;BMP_temperature;BMP_pressure;BME280_temperature;BME280_humidity;BME280_pressure;Samples;Min_cycle;Max_cycle;Signal;HPM_P1;HPM_P2
2020/12/26 00:01:33;;;;;;;17.98;7.53;;;;;;;;;;5045153;28;20767;-72
2020/12/26 00:03:58;;;;;;;14.75;6.13;;;;;;;;;;5044943;28;20024;-73
2020/12/26 00:06:23;;;;;;;22.52;6.72;;;;;;;;;;5045237;28;21142;-73
2020/12/26 00:08:50;;;;;;;21.00;6.85;;;;;;;;;;5045401;28;20068;-73
2020/12/26 00:11:16;;;;;;;20.75;6.68;;;;;;;;;;5045716;28;20085;-73
2020/12/26 00:13:41;;;;;;;20.98;7.32;;;;;;;;;;5045148;28;20029;-73
2020/12/26 00:16:07;;;;;;;15.77;6.65;;;;;;;;;;5046105;28;20037;-73
2020/12/26 00:18:33;;;;;;;19.75;6.97;;;;;;;;;;5045041;28;20086;-72
2020/12/26 00:20:59;;;;;;;12.70;7.10;;;;;;;;;;5044842;28;20107;-73
2020/12/26 00:23:24;;;;;;;16.75;6.50;;;;;;;;;;5045101;28;20505;-73
2020/12/26 00:25:50;;;;;;;19.10;6.70;;;;;;;;;;5045915;28;20029;-72
2020/12/26 00:28:15;;;;;;;21.35;7.82;;;;;;;;;;5045106;28;20056;-73
2020/12/26 00:30:41;;;;;;;22.88;7.85;;;;;;;;;;5045384;28;21274;-72
2020/12/26 00:33:06;;;;;;;28.15;7.57;;;;;;;;;;5044484;28;20604;-72
2020/12/26 00:35:31;;;;;;;21.88;9.25;;;;;;;;;;5044106;28;20115;-73
2020/12/26 00:37:56;;;;;;;20.50;7.88;;;;;;;;;;5045865;28;20493;-72
2020/12/26 00:40:21;;;;;;;20.83;8.02;;;;;;;;;;5045390;28;20037;-73
2020/12/26 00:42:47;;;;;;;23.75;10.38;;;;;;;;;;5045297;28;20029;-73
2020/12/26 00:45:12;;;;;;;30.40;9.23;;;;;;;;;;5044796;28;20398;-75
2020/12/26 00:47:37;;;;;;;22.67;9.88;;;;;;;;;;5044964;28;20037;-75
2020/12/26 00:50:02;;;;;;;19.33;9.07;;;;;;;;;;5044570;28;20047;-75
2020/12/26 00:52:29;;;;;;;25.70;10.57;;;;;;;;;;5044592;28;20031;-75
2020/12/26 00:54:54;;;;;;;28.02;10.40;;;;;;;;;;5044336;28;20017;-75
2020/12/26 00:57:19;;;;;;;30.35;10.57;;;;;;;;;;5043998;28;20038;-72
2020/12/26 00:59:45;;;;;;;24.08;10.18;;;;;;;;;;5044012;28;20043;-74
2020/12/26 01:02:10;;;;;;;23.10;11.40;;;;;;;;;;5043132;28;20025;-74
2020/12/26 01:04:35;;;;;;;21.67;10.65;;;;;;;;;;5044069;28;20035;-75
2020/12/26 01:07:00;;;;;;;22.65;10.23;;;;;;;;;;5043367;28;20056;-72
2020/12/26 01:09:25;;;;;;;34.40;11.23;;;;;;;;;;5044311;28;20029;-74
2020/12/26 01:11:51;;;;;;;19.85;9.02;;;;;;;;;;5043527;28;20025;-73
2020/12/26 01:14:16;;;;;;;24.13;9.23;;;;;;;;;;5044372;28;20033;-75
2020/12/26 01:16:41;;;;;;;27.60;10.68;;;;;;;;;;5045274;28;20071;-74
2020/12/26 01:19:07;;;;;;;27.02;10.23;;;;;;;;;;5043979;28;20555;-72
2020/12/26 01:21:32;;;;;;;22.92;10.40;;;;;;;;;;5043349;28;20162;-75
2020/12/26 01:23:57;;;;;;;25.77;10.45;;;;;;;;;;5043345;28;20017;-73
2020/12/26 01:26:22;;;;;;;27.58;10.15;;;;;;;;;;5043906;28;20040;-73
2020/12/26 01:28:48;;;;;;;23.67;9.13;;;;;;;;;;5044708;28;20037;-71
2020/12/26 01:31:13;;;;;;;25.48;9.95;;;;;;;;;;5043470;28;20280;-75
2020/12/26 01:33:38;;;;;;;24.58;9.63;;;;;;;;;;5045393;28;20243;-71
2020/12/26 01:36:03;;;;;;;20.65;10.35;;;;;;;;;;5044075;28;20025;-73
2020/12/26 01:38:28;;;;;;;18.77;9.27;;;;;;;;;;5043247;28;20100;-73
2020/12/26 01:40:54;;;;;;;33.60;10.43;;;;;;;;;;5043883;28;20029;-74
2020/12/26 01:43:19;;;;;;;25.25;9.82;;;;;;;;;;5044418;28;20505;-72
2020/12/26 01:45:45;;;;;;;24.45;9.57;;;;;;;;;;5043246;28;20477;-72
2020/12/26 01:48:13;;;;;;;24.80;10.70;;;;;;;;;;5042243;28;20056;-74
2020/12/26 01:50:38;;;;;;;27.02;9.48;;;;;;;;;;5063086;23;20019;-67
2020/12/26 01:53:04;;;;;;;19.88;9.82;;;;;;;;;;5033923;28;20034;-67
2020/12/26 01:55:29;;;;;;;22.75;9.68;;;;;;;;;;5036187;28;20063;-67
2020/12/26 01:57:54;;;;;;;25.43;11.37;;;;;;;;;;5035066;28;20457;-68
2020/12/26 02:00:20;;;;;;;31.17;11.93;;;;;;;;;;5037969;28;20255;-67
2020/12/26 02:02:46;;;;;;;22.90;11.70;;;;;;;;;;5039934;28;20048;-67
2020/12/26 02:05:11;;;;;;;25.67;12.23;;;;;;;;;;5035201;28;20028;-67
2020/12/26 02:07:38;;;;;;;30.50;14.18;;;;;;;;;;5037140;28;20110;-67
2020/12/26 02:10:03;;;;;;;31.58;14.60;;;;;;;;;;5036375;28;20036;-67
2020/12/26 02:12:29;;;;;;;29.55;14.13;;;;;;;;;;5034516;28;20025;-67
2020/12/26 02:14:54;;;;;;;28.50;14.60;;;;;;;;;;5037126;28;20154;-67
2020/12/26 02:17:26;;;;;;;31.95;13.60;;;;;;;;;;5032410;28;20520;-67
2020/12/26 02:19:52;;;;;;;36.88;15.50;;;;;;;;;;5032577;28;20380;-67
2020/12/26 02:22:17;;;;;;;33.45;14.43;;;;;;;;;;5037058;28;20029;-67
2020/12/26 02:24:42;;;;;;;32.35;14.00;;;;;;;;;;5034302;28;20300;-67
2020/12/26 02:27:07;;;;;;;31.07;15.80;;;;;;;;;;5032587;28;20032;-67
2020/12/26 02:29:32;;;;;;;30.92;14.07;;;;;;;;;;5035933;28;20255;-68
2020/12/26 02:31:57;;;;;;;37.03;15.20;;;;;;;;;;5035520;28;20040;-67
2020/12/26 02:34:23;;;;;;;31.08;13.43;;;;;;;;;;5037211;28;20041;-67
2020/12/26 02:36:48;;;;;;;25.90;14.40;;;;;;;;;;5038054;28;20131;-67
2020/12/26 02:39:13;;;;;;;31.98;14.18;;;;;;;;;;5037363;28;20303;-67
2020/12/26 02:41:38;;;;;;;31.33;14.18;;;;;;;;;;5035707;28;20099;-65
2020/12/26 02:44:03;;;;;;;33.83;14.90;;;;;;;;;;5033171;28;20527;-65
2020/12/26 02:46:28;;;;;;;34.65;13.70;;;;;;;;;;5035555;28;20289;-66
2020/12/26 02:48:54;;;;;;;35.13;14.32;;;;;;;;;;5038624;28;20101;-66
2020/12/26 02:51:19;;;;;;;30.80;14.63;;;;;;;;;;5037320;28;20469;-66
2020/12/26 02:53:44;;;;;;;27.13;14.48;;;;;;;;;;5035271;28;20497;-66
2020/12/26 02:56:10;;;;;;;29.57;13.67;;;;;;;;;;5033055;28;20029;-66
2020/12/26 02:58:37;;;;;;;33.53;13.52;;;;;;;;;;5036610;28;20329;-68
2020/12/26 03:01:02;;;;;;;28.98;12.73;;;;;;;;;;5032178;28;20342;-68
2020/12/26 03:03:27;;;;;;;36.08;14.93;;;;;;;;;;5035165;28;20017;-66
2020/12/26 03:05:52;;;;;;;24.17;13.97;;;;;;;;;;5037452;28;20049;-67
2020/12/26 03:08:17;;;;;;;33.57;14.57;;;;;;;;;;5034905;28;20284;-67
2020/12/26 03:10:42;;;;;;;31.02;15.48;;;;;;;;;;5035441;28;20279;-66
2020/12/26 03:13:08;;;;;;;39.40;13.55;;;;;;;;;;5034389;28;20118;-66
2020/12/26 03:15:33;;;;;;;19.52;9.73;;;;;;;;;;5035421;28;20119;-66
2020/12/26 03:17:58;;;;;;;40.22;17.33;;;;;;;;;;5035665;28;20091;-66
2020/12/26 03:20:23;;;;;;;44.50;18.58;;;;;;;;;;5030698;28;20032;-66
2020/12/26 03:22:48;;;;;;;33.35;17.50;;;;;;;;;;5037157;28;20025;-66
2020/12/26 03:25:14;;;;;;;46.08;16.55;;;;;;;;;;5035786;28;20132;-66
2020/12/26 03:27:39;;;;;;;35.30;14.63;;;;;;;;;;5037236;28;20436;-67
2020/12/26 03:30:04;;;;;;;30.77;15.33;;;;;;;;;;5040452;28;20033;-67
2020/12/26 03:32:30;;;;;;;30.33;15.63;;;;;;;;;;5036828;28;20306;-67
2020/12/26 03:34:55;;;;;;;32.05;16.08;;;;;;;;;;5040498;28;20487;-67
2020/12/26 03:37:20;;;;;;;33.58;16.25;;;;;;;;;;5037507;28;20466;-67
2020/12/26 03:39:45;;;;;;;35.63;16.88;;;;;;;;;;5038183;28;20049;-67
2020/12/26 03:42:11;;;;;;;28.48;14.65;;;;;;;;;;5040455;28;20029;-68
2020/12/26 03:44:37;;;;;;;32.65;15.60;;;;;;;;;;5040943;28;20033;-67
2020/12/26 03:47:06;;;;;;;38.70;16.13;;;;;;;;;;5038515;28;20051;-67
2020/12/26 03:49:32;;;;;;;29.52;14.30;;;;;;;;;;5035047;28;20485;-67
2020/12/26 03:51:57;;;;;;;32.70;15.30;;;;;;;;;;5036881;28;20040;-69
2020/12/26 03:54:22;;;;;;;29.83;15.10;;;;;;;;;;5035693;28;20030;-67
2020/12/26 03:56:48;;;;;;;35.30;16.83;;;;;;;;;;5040677;28;20040;-67
2020/12/26 03:59:13;;;;;;;37.00;17.65;;;;;;;;;;5035659;28;20029;-67
2020/12/26 04:01:39;;;;;;;36.55;16.55;;;;;;;;;;5036187;28;20521;-67
2020/12/26 04:04:04;;;;;;;33.55;16.42;;;;;;;;;;5040195;28;20037;-67
2020/12/26 04:06:29;;;;;;;35.58;17.98;;;;;;;;;;5036429;28;20021;-67
2020/12/26 04:08:54;;;;;;;37.40;15.87;;;;;;;;;;5037522;28;20024;-67
2020/12/26 04:11:20;;;;;;;32.92;15.45;;;;;;;;;;5038701;28;20661;-67
2020/12/26 04:13:45;;;;;;;34.58;15.77;;;;;;;;;;5040484;28;20108;-67
2020/12/26 04:16:10;;;;;;;39.10;15.73;;;;;;;;;;5037163;28;20028;-67
2020/12/26 04:18:36;;;;;;;32.63;15.73;;;;;;;;;;5040110;28;20373;-67
2020/12/26 04:21:01;;;;;;;33.33;13.77;;;;;;;;;;5036998;28;20380;-66
2020/12/26 04:23:26;;;;;;;30.00;14.93;;;;;;;;;;5036940;28;20021;-67
2020/12/26 04:25:51;;;;;;;33.07;15.73;;;;;;;;;;5037750;28;20300;-67
2020/12/26 04:28:16;;;;;;;32.10;14.15;;;;;;;;;;5035242;28;20279;-67
2020/12/26 04:30:41;;;;;;;36.17;14.30;;;;;;;;;;5036120;28;20781;-66
2020/12/26 04:33:07;;;;;;;34.87;14.63;;;;;;;;;;5033940;28;20466;-67
2020/12/26 04:35:32;;;;;;;36.35;15.05;;;;;;;;;;5035080;28;20644;-67
2020/12/26 04:37:57;;;;;;;28.02;14.35;;;;;;;;;;5039237;28;20020;-67
2020/12/26 04:40:22;;;;;;;33.67;15.30;;;;;;;;;;5037562;28;20104;-67
2020/12/26 04:42:48;;;;;;;27.65;12.98;;;;;;;;;;5035592;28;20272;-67
2020/12/26 04:45:13;;;;;;;31.80;15.27;;;;;;;;;;5037575;28;20036;-67
2020/12/26 04:47:54;;;;;;;32.92;15.65;;;;;;;;;;5037456;28;20036;-66
2020/12/26 04:50:25;;;;;;;30.73;16.10;;;;;;;;;;5034522;28;20036;-66
2020/12/26 04:52:55;;;;;;;35.28;14.30;;;;;;;;;;5035061;28;20041;-67
2020/12/26 04:55:23;;;;;;;39.20;16.10;;;;;;;;;;5033970;28;20517;-66
2020/12/26 04:57:49;;;;;;;35.28;16.63;;;;;;;;;;5036733;28;20047;-67
2020/12/26 05:00:14;;;;;;;48.72;21.13;;;;;;;;;;5035116;28;20029;-67
2020/12/26 05:02:41;;;;;;;42.80;19.88;;;;;;;;;;5033010;28;20122;-67
2020/12/26 05:05:07;;;;;;;37.83;17.95;;;;;;;;;;5035354;28;20043;-67
2020/12/26 05:07:32;;;;;;;36.22;17.95;;;;;;;;;;5033067;28;20033;-67
2020/12/26 05:09:58;;;;;;;35.85;17.10;;;;;;;;;;5035183;28;20028;-67
2020/12/26 05:12:23;;;;;;;41.03;17.48;;;;;;;;;;5033186;28;20030;-67
2020/12/26 05:14:52;;;;;;;44.10;20.70;;;;;;;;;;5036701;28;20036;-66
2020/12/26 05:17:17;;;;;;;46.85;20.98;;;;;;;;;;5031157;28;20030;-66
2020/12/26 05:19:43;;;;;;;40.13;19.13;;;;;;;;;;5035310;28;20047;-67
2020/12/26 05:22:09;;;;;;;24.80;10.27;;;;;;;;;;5035280;28;20023;-66
2020/12/26 05:24:34;;;;;;;40.25;19.10;;;;;;;;;;5036127;28;20457;-66
2020/12/26 05:26:59;;;;;;;54.20;23.73;;;;;;;;;;5034865;28;20568;-67
2020/12/26 05:29:24;;;;;;;38.92;20.85;;;;;;;;;;5036982;28;20082;-66
2020/12/26 05:31:59;;;;;;;42.88;20.13;;;;;;;;;;5036838;28;20049;-66
2020/12/26 05:34:34;;;;;;;34.15;14.93;;;;;;;;;;5037741;28;20050;-67
2020/12/26 05:37:00;;;;;;;32.28;16.38;;;;;;;;;;5038247;28;20025;-67
2020/12/26 05:39:31;;;;;;;37.22;15.13;;;;;;;;;;5034569;28;20618;-67
2020/12/26 05:41:57;;;;;;;20.15;10.50;;;;;;;;;;5034938;28;20428;-67
2020/12/26 05:44:32;;;;;;;35.42;18.50;;;;;;;;;;5035941;28;20031;-67
2020/12/26 05:46:58;;;;;;;28.30;15.23;;;;;;;;;;5031010;28;20052;-67
2020/12/26 05:49:28;;;;;;;32.40;16.30;;;;;;;;;;5035718;28;20028;-66
2020/12/26 05:51:57;;;;;;;35.07;16.97;;;;;;;;;;5031832;28;20022;-66
2020/12/26 05:54:22;;;;;;;35.97;13.27;;;;;;;;;;5037772;28;20670;-67
2020/12/26 05:56:47;;;;;;;30.20;14.63;;;;;;;;;;5036356;28;20042;-67
2020/12/26 05:59:25;;;;;;;43.72;17.23;;;;;;;;;;5031802;28;20036;-67
2020/12/26 06:01:50;;;;;;;30.00;15.10;;;;;;;;;;5037690;28;20059;-66
2020/12/26 06:04:19;;;;;;;50.00;20.40;;;;;;;;;;5036006;28;20615;-66
2020/12/26 06:06:45;;;;;;;40.05;20.80;;;;;;;;;;5032266;28;21487;-67
2020/12/26 06:09:10;;;;;;;38.13;19.40;;;;;;;;;;5033444;28;20043;-67
2020/12/26 06:11:36;;;;;;;67.25;27.40;;;;;;;;;;5036992;28;20465;-67
2020/12/26 06:14:01;;;;;;;60.63;29.40;;;;;;;;;;5031943;28;20405;-67
2020/12/26 06:16:26;;;;;;;43.08;20.70;;;;;;;;;;5038976;28;20057;-67
2020/12/26 06:18:58;;;;;;;39.22;15.45;;;;;;;;;;5034531;28;20064;-66
2020/12/26 06:21:24;;;;;;;51.63;19.70;;;;;;;;;;5033735;28;20029;-67
2020/12/26 06:23:50;;;;;;;29.73;12.18;;;;;;;;;;5035764;28;20409;-67
2020/12/26 06:26:16;;;;;;;36.25;18.00;;;;;;;;;;5032165;28;20035;-67
2020/12/26 06:28:41;;;;;;;34.35;13.98;;;;;;;;;;5035269;28;20056;-67
2020/12/26 06:31:07;;;;;;;29.95;14.73;;;;;;;;;;5035674;28;20061;-67
2020/12/26 06:33:46;;;;;;;33.63;15.70;;;;;;;;;;5031930;28;20052;-67
2020/12/26 06:36:12;;;;;;;36.00;18.38;;;;;;;;;;5035524;28;20025;-67
2020/12/26 06:38:38;;;;;;;45.83;19.73;;;;;;;;;;5032630;28;20040;-67
2020/12/26 06:41:03;;;;;;;38.55;18.50;;;;;;;;;;5030018;28;20556;-66
2020/12/26 06:43:43;;;;;;;39.35;19.85;;;;;;;;;;5029806;28;20171;-67
2020/12/26 06:46:29;;;;;;;40.78;21.73;;;;;;;;;;5035201;28;20272;-67
2020/12/26 06:48:55;;;;;;;41.53;21.77;;;;;;;;;;5029546;28;20030;-67
2020/12/26 06:51:21;;;;;;;40.75;20.48;;;;;;;;;;5034541;28;20041;-67
2020/12/26 06:53:46;;;;;;;45.28;21.95;;;;;;;;;;5035600;28;20587;-66
2020/12/26 06:56:31;;;;;;;34.50;17.02;;;;;;;;;;5033717;28;20302;-67
2020/12/26 06:58:56;;;;;;;49.45;21.92;;;;;;;;;;5033952;28;20033;-67
2020/12/26 07:01:21;;;;;;;51.57;22.73;;;;;;;;;;5037422;28;20088;-67
2020/12/26 07:03:46;;;;;;;42.92;20.60;;;;;;;;;;5039332;28;20279;-67
2020/12/26 07:06:32;;;;;;;44.58;18.42;;;;;;;;;;5039424;28;20024;-67
2020/12/26 07:08:57;;;;;;;45.03;21.45;;;;;;;;;;5037712;28;20024;-67
2020/12/26 07:11:25;;;;;;;43.17;20.00;;;;;;;;;;5041066;28;20021;-67
2020/12/26 07:13:52;;;;;;;46.67;20.10;;;;;;;;;;5040847;28;20306;-67
2020/12/26 07:16:35;;;;;;;47.58;21.33;;;;;;;;;;5043051;28;20033;-67
2020/12/26 07:19:19;;;;;;;45.42;20.30;;;;;;;;;;5040705;28;20103;-66
2020/12/26 07:21:45;;;;;;;43.60;20.63;;;;;;;;;;5038854;28;20107;-67
2020/12/26 07:24:14;;;;;;;33.38;19.27;;;;;;;;;;5041502;28;20033;-67
2020/12/26 07:26:40;;;;;;;44.03;21.02;;;;;;;;;;5041881;28;20130;-67
2020/12/26 07:29:05;;;;;;;44.20;20.07;;;;;;;;;;5042460;28;20051;-67
2020/12/26 07:31:45;;;;;;;39.25;20.52;;;;;;;;;;5038968;28;20275;-67
2020/12/26 07:34:10;;;;;;;;;;;;;;;;;;5039225;28;20037;-67
2020/12/26 07:36:35;;;;;;;35.58;17.38;;;;;;;;;;5038881;28;19942;-67
2020/12/26 07:39:02;;;;;;;42.92;19.70;;;;;;;;;;5040400;28;20369;-67
2020/12/26 07:41:27;;;;;;;37.38;15.57;;;;;;;;;;5040169;28;21253;-67
2020/12/26 07:43:52;;;;;;;33.90;16.73;;;;;;;;;;5042433;28;20044;-67
2020/12/26 07:46:18;;;;;;;32.08;16.45;;;;;;;;;;5040859;28;20068;-67
2020/12/26 07:48:52;;;;;;;28.00;14.10;;;;;;;;;;5040766;28;20052;-67
2020/12/26 07:51:17;;;;;;;46.47;17.58;;;;;;;;;;5043580;28;20037;-67
2020/12/26 07:53:43;;;;;;;30.80;16.47;;;;;;;;;;5038069;28;20036;-67
2020/12/26 07:56:08;;;;;;;16.23;6.53;;;;;;;;;;5041170;28;20268;-67
2020/12/26 07:58:33;;;;;;;28.75;13.45;;;;;;;;;;5042926;28;20021;-67
2020/12/26 08:00:58;;;;;;;27.42;12.95;;;;;;;;;;5041488;28;20056;-67
2020/12/26 08:03:24;;;;;;;26.85;14.55;;;;;;;;;;5038804;28;20087;-67
2020/12/26 08:05:49;;;;;;;28.92;12.48;;;;;;;;;;5037720;28;20022;-67
2020/12/26 08:08:15;;;;;;;24.35;12.38;;;;;;;;;;5041029;28;20032;-67
2020/12/26 08:10:41;;;;;;;24.25;12.65;;;;;;;;;;5042959;28;20123;-68
2020/12/26 08:13:12;;;;;;;25.33;11.05;;;;;;;;;;5038657;28;20100;-67
2020/12/26 08:15:37;;;;;;;;;;;;;;;;;;5038099;28;20024;-67
2020/12/26 08:18:02;;;;;;;21.60;10.60;;;;;;;;;;5036792;28;19996;-67
2020/12/26 08:20:29;;;;;;;24.88;10.43;;;;;;;;;;5036163;28;20410;-66
2020/12/26 08:22:55;;;;;;;17.83;9.68;;;;;;;;;;5040287;28;20444;-67
2020/12/26 08:25:22;;;;;;;20.33;9.70;;;;;;;;;;5035712;28;20056;-67
2020/12/26 08:27:47;;;;;;;21.67;12.60;;;;;;;;;;5035328;28;20085;-67
2020/12/26 08:30:15;;;;;;;19.40;11.10;;;;;;;;;;5039724;28;20032;-67
2020/12/26 08:32:55;;;;;;;21.83;11.10;;;;;;;;;;5035735;28;20029;-67
2020/12/26 08:35:23;;;;;;;25.20;12.38;;;;;;;;;;5033367;28;20091;-68
2020/12/26 08:37:53;;;;;;;20.60;10.38;;;;;;;;;;5037903;28;20029;-68
2020/12/26 08:40:18;;;;;;;24.42;11.88;;;;;;;;;;5040447;28;20054;-68
2020/12/26 08:42:44;;;;;;;22.30;11.38;;;;;;;;;;5039937;28;20031;-67
2020/12/26 08:45:27;;;;;;;22.90;9.60;;;;;;;;;;5037226;28;20052;-67
2020/12/26 08:47:52;;;;;;;17.13;7.47;;;;;;;;;;5033896;28;20017;-67
2020/12/26 08:50:18;;;;;;;14.07;8.13;;;;;;;;;;5035483;28;20574;-67
2020/12/26 08:52:43;;;;;;;17.92;7.90;;;;;;;;;;5037238;28;20452;-68
2020/12/26 08:55:09;;;;;;;19.65;7.13;;;;;;;;;;5036278;28;20463;-68
2020/12/26 08:57:34;;;;;;;13.50;7.07;;;;;;;;;;5034500;28;20067;-67
2020/12/26 09:00:19;;;;;;;8.48;4.63;;;;;;;;;;5036890;28;20027;-67
2020/12/26 09:02:47;;;;;;;11.27;6.50;;;;;;;;;;5035951;28;20056;-68
2020/12/26 09:05:19;;;;;;;15.55;6.57;;;;;;;;;;5034634;28;20101;-68
2020/12/26 09:07:44;;;;;;;9.43;5.70;;;;;;;;;;5035084;28;20031;-67
2020/12/26 09:10:11;;;;;;;17.40;6.45;;;;;;;;;;5036865;28;20029;-67
2020/12/26 09:12:36;;;;;;;13.18;6.70;;;;;;;;;;5034141;28;20079;-67
2020/12/26 09:15:01;;;;;;;9.67;5.57;;;;;;;;;;5035007;28;20017;-68
2020/12/26 09:17:26;;;;;;;12.77;6.10;;;;;;;;;;5035782;28;20276;-68
2020/12/26 09:19:52;;;;;;;15.20;5.63;;;;;;;;;;5034894;28;20444;-68
2020/12/26 09:22:17;;;;;;;14.40;5.90;;;;;;;;;;5040445;28;20325;-68
2020/12/26 09:24:43;;;;;;;10.13;7.13;;;;;;;;;;5033249;28;20041;-68
2020/12/26 09:27:18;;;;;;;3.78;2.28;;;;;;;;;;5036371;28;20286;-68
2020/12/26 09:29:43;;;;;;;11.65;4.13;;;;;;;;;;5036686;28;20127;-68
2020/12/26 09:32:08;;;;;;;7.00;3.33;;;;;;;;;;5029857;28;20033;-68
2020/12/26 09:34:35;;;;;;;14.80;5.70;;;;;;;;;;5035172;28;20022;-68
2020/12/26 09:37:07;;;;;;;8.88;4.13;;;;;;;;;;5032103;28;20036;-67
2020/12/26 09:39:32;;;;;;;10.50;4.80;;;;;;;;;;5029719;28;20025;-68
2020/12/26 09:41:58;;;;;;;13.88;5.25;;;;;;;;;;5032879;28;20021;-68
2020/12/26 09:44:23;;;;;;;10.55;4.53;;;;;;;;;;5034770;28;20033;-67
2020/12/26 09:46:54;;;;;;;6.93;3.60;;;;;;;;;;5033653;28;20036;-68
2020/12/26 09:49:20;;;;;;;12.73;3.78;;;;;;;;;;5037994;28;20021;-66
2020/12/26 09:51:45;;;;;;;7.37;3.90;;;;;;;;;;5033482;28;20391;-68
2020/12/26 09:54:10;;;;;;;8.70;3.77;;;;;;;;;;5032495;28;20750;-68
2020/12/26 09:56:35;;;;;;;9.47;4.30;;;;;;;;;;5034811;28;20276;-67
2020/12/26 09:59:00;;;;;;;9.50;4.67;;;;;;;;;;5032878;28;20287;-67
2020/12/26 10:01:25;;;;;;;10.03;4.60;;;;;;;;;;5037980;28;20268;-67
2020/12/26 10:03:51;;;;;;;9.97;4.00;;;;;;;;;;5034718;28;20611;-67
2020/12/26 10:06:17;;;;;;;12.95;4.65;;;;;;;;;;5036069;28;21196;-68
2020/12/26 10:08:43;;;;;;;9.65;4.93;;;;;;;;;;5037422;28;20036;-68
2020/12/26 10:11:09;;;;;;;12.82;5.13;;;;;;;;;;5034290;28;20694;-67
2020/12/26 10:13:34;;;;;;;8.15;3.65;;;;;;;;;;5030646;28;20065;-68
2020/12/26 10:15:59;;;;;;;6.22;3.33;;;;;;;;;;5035135;28;20172;-69
2020/12/26 10:18:24;;;;;;;12.43;5.00;;;;;;;;;;5049687;28;20140;-69
2020/12/26 10:20:49;;;;;;;9.55;5.28;;;;;;;;;;5033694;28;20885;-67
2020/12/26 10:23:14;;;;;;;11.30;4.67;;;;;;;;;;5032016;28;20562;-67
2020/12/26 10:25:40;;;;;;;13.40;6.23;;;;;;;;;;5032317;28;20511;-67
2020/12/26 10:28:05;;;;;;;8.00;4.25;;;;;;;;;;5031713;28;20814;-67
2020/12/26 10:30:30;;;;;;;14.43;4.53;;;;;;;;;;5031299;28;20219;-67
2020/12/26 10:32:56;;;;;;;5.95;2.70;;;;;;;;;;5034297;28;20033;-67
2020/12/26 10:35:21;;;;;;;15.05;4.50;;;;;;;;;;5034416;28;20043;-67
2020/12/26 10:37:46;;;;;;;11.95;4.50;;;;;;;;;;5034452;28;20575;-67
2020/12/26 10:40:11;;;;;;;7.55;3.63;;;;;;;;;;5033368;28;20056;-67
2020/12/26 10:42:37;;;;;;;10.65;4.75;;;;;;;;;;5033656;28;20212;-68
2020/12/26 10:45:02;;;;;;;12.02;4.18;;;;;;;;;;5032683;28;20031;-68
2020/12/26 10:47:27;;;;;;;8.07;3.25;;;;;;;;;;5032838;28;20461;-66
2020/12/26 10:49:53;;;;;;;7.70;2.70;;;;;;;;;;5035467;28;20033;-67
2020/12/26 10:52:18;;;;;;;8.15;3.92;;;;;;;;;;5034603;28;21085;-67
2020/12/26 10:54:43;;;;;;;7.65;3.72;;;;;;;;;;5032112;28;20025;-67
2020/12/26 10:57:08;;;;;;;6.37;2.77;;;;;;;;;;5037096;28;20029;-68
2020/12/26 10:59:33;;;;;;;11.97;4.53;;;;;;;;;;5038335;28;20799;-68
2020/12/26 11:01:59;;;;;;;8.35;3.92;;;;;;;;;;5035892;28;20279;-68
2020/12/26 11:04:24;;;;;;;14.20;3.90;;;;;;;;;;5037514;28;20029;-67
2020/12/26 11:06:49;;;;;;;4.13;1.90;;;;;;;;;;5038130;28;20033;-67
2020/12/26 11:09:18;;;;;;;6.50;3.38;;;;;;;;;;5038135;28;20028;-67
2020/12/26 11:11:50;;;;;;;6.78;3.42;;;;;;;;;;5038555;28;20029;-67
2020/12/26 11:14:15;;;;;;;5.38;1.88;;;;;;;;;;5037153;28;20025;-67
2020/12/26 11:16:45;;;;;;;12.18;4.25;;;;;;;;;;5037170;28;20020;-66
2020/12/26 11:19:10;;;;;;;8.45;3.78;;;;;;;;;;5034945;28;20033;-67
2020/12/26 11:21:35;;;;;;;6.87;2.37;;;;;;;;;;5035291;28;20070;-67
2020/12/26 11:24:01;;;;;;;7.77;2.80;;;;;;;;;;5038010;28;20263;-68
2020/12/26 11:26:26;;;;;;;6.10;2.53;;;;;;;;;;5036931;28;20332;-67
2020/12/26 11:28:51;;;;;;;11.65;2.90;;;;;;;;;;5039055;28;20082;-67
2020/12/26 11:31:21;;;;;;;8.38;3.70;;;;;;;;;;5036623;28;20032;-68
2020/12/26 11:33:46;;;;;;;4.00;2.23;;;;;;;;;;5035748;28;20052;-66
2020/12/26 11:36:16;;;;;;;7.85;2.47;;;;;;;;;;5037301;28;20608;-68
2020/12/26 11:38:41;;;;;;;8.45;2.17;;;;;;;;;;5038528;28;20027;-66
2020/12/26 11:41:06;;;;;;;5.18;2.50;;;;;;;;;;5038820;28;20025;-67
2020/12/26 11:43:32;;;;;;;12.48;2.55;;;;;;;;;;5040207;28;20013;-67
2020/12/26 11:45:57;;;;;;;6.97;2.92;;;;;;;;;;5039316;28;20052;-67
2020/12/26 11:48:22;;;;;;;7.40;1.90;;;;;;;;;;5036714;28;20028;-67
2020/12/26 11:50:47;;;;;;;4.00;1.27;;;;;;;;;;5042420;28;20638;-67
2020/12/26 11:53:12;;;;;;;5.80;2.28;;;;;;;;;;5040104;28;20358;-67
2020/12/26 11:55:37;;;;;;;8.47;1.90;;;;;;;;;;5042373;28;20382;-68
2020/12/26 11:58:03;;;;;;;9.20;2.97;;;;;;;;;;5044310;28;20360;-67
2020/12/26 12:00:28;;;;;;;12.02;2.28;;;;;;;;;;5044628;28;20637;-67
2020/12/26 12:02:53;;;;;;;5.68;2.63;;;;;;;;;;5041689;28;20021;-68
2020/12/26 12:05:18;;;;;;;5.68;2.55;;;;;;;;;;5036848;28;20028;-68
2020/12/26 12:07:44;;;;;;;10.10;2.75;;;;;;;;;;5038993;28;20025;-68
2020/12/26 12:10:09;;;;;;;4.82;1.75;;;;;;;;;;5043507;28;20024;-68
2020/12/26 12:12:34;;;;;;;3.53;1.80;;;;;;;;;;5040641;28;20591;-68
2020/12/26 12:14:59;;;;;;;9.25;2.47;;;;;;;;;;5037680;28;20505;-68
2020/12/26 12:17:24;;;;;;;3.77;1.80;;;;;;;;;;5039888;28;20041;-67
2020/12/26 12:19:50;;;;;;;5.60;1.85;;;;;;;;;;5041431;28;20341;-68
2020/12/26 12:22:15;;;;;;;4.35;2.08;;;;;;;;;;5040355;28;20465;-68
2020/12/26 12:24:40;;;;;;;11.90;1.85;;;;;;;;;;5034531;28;20029;-68
2020/12/26 12:27:05;;;;;;;10.13;3.03;;;;;;;;;;5043257;28;20049;-68
2020/12/26 12:29:30;;;;;;;5.13;1.63;;;;;;;;;;5040812;28;20268;-68
2020/12/26 12:31:55;;;;;;;10.02;1.83;;;;;;;;;;5040639;28;20024;-67
2020/12/26 12:34:22;;;;;;;6.40;1.50;;;;;;;;;;5036316;28;20044;-68
2020/12/26 12:36:48;;;;;;;9.77;2.55;;;;;;;;;;5039578;28;20322;-67
2020/12/26 12:39:13;;;;;;;8.98;2.58;;;;;;;;;;5042664;28;20060;-68
2020/12/26 12:41:38;;;;;;;5.43;1.83;;;;;;;;;;5042992;28;20029;-69
2020/12/26 12:44:03;;;;;;;13.30;2.70;;;;;;;;;;5037333;28;20779;-69
2020/12/26 12:46:28;;;;;;;2.70;1.10;;;;;;;;;;5039080;28;20485;-68
2020/12/26 12:48:53;;;;;;;9.73;2.10;;;;;;;;;;5041828;28;20354;-69
2020/12/26 12:51:19;;;;;;;3.60;1.50;;;;;;;;;;5046418;28;20048;-68
2020/12/26 12:53:44;;;;;;;4.95;1.40;;;;;;;;;;5048975;28;20274;-70
2020/12/26 12:56:09;;;;;;;10.55;1.70;;;;;;;;;;5081700;22;20552;-67
2020/12/26 12:58:34;;;;;;;7.10;1.75;;;;;;;;;;5050817;28;20033;-67
2020/12/26 13:00:59;;;;;;;3.97;1.00;;;;;;;;;;5046714;28;20035;-67
2020/12/26 13:03:25;;;;;;;5.53;1.50;;;;;;;;;;5049769;28;20017;-66
2020/12/26 13:05:50;;;;;;;10.43;1.53;;;;;;;;;;5047434;28;20447;-67
2020/12/26 13:08:18;;;;;;;0.35;0.35;;;;;;;;;;5050611;28;20255;-67
2020/12/26 13:10:43;;;;;;;4.82;1.13;;;;;;;;;;5049779;28;20029;-66
2020/12/26 13:13:09;;;;;;;6.55;1.40;;;;;;;;;;5049086;28;20439;-67
2020/12/26 13:15:34;;;;;;;3.45;1.15;;;;;;;;;;5050342;28;20028;-66
2020/12/26 13:17:59;;;;;;;3.47;0.80;;;;;;;;;;5048466;28;20041;-67
2020/12/26 13:20:24;;;;;;;3.33;0.90;;;;;;;;;;5050262;28;20029;-67
2020/12/26 13:22:49;;;;;;;8.55;3.28;;;;;;;;;;5047188;28;20263;-67
2020/12/26 13:25:15;;;;;;;2.63;1.00;;;;;;;;;;5050618;28;20128;-67
2020/12/26 13:27:40;;;;;;;3.00;0.75;;;;;;;;;;5049955;28;20025;-67
2020/12/26 13:30:06;;;;;;;3.40;0.57;;;;;;;;;;5051148;28;20021;-67
2020/12/26 13:32:31;;;;;;;1.55;0.70;;;;;;;;;;5051288;28;20021;-67
2020/12/26 13:34:56;;;;;;;5.38;1.20;;;;;;;;;;5047123;28;20443;-67
2020/12/26 13:37:21;;;;;;;5.67;1.20;;;;;;;;;;5050096;28;20104;-67
2020/12/26 13:39:46;;;;;;;4.40;1.40;;;;;;;;;;5049335;28;20797;-67
2020/12/26 13:42:12;;;;;;;1.53;0.67;;;;;;;;;;5049826;28;20044;-67
2020/12/26 13:44:37;;;;;;;4.15;1.00;;;;;;;;;;5048781;28;20782;-67
2020/12/26 13:47:02;;;;;;;1.80;0.90;;;;;;;;;;5045972;28;20469;-67
2020/12/26 13:49:27;;;;;;;5.40;1.40;;;;;;;;;;5044766;28;20063;-67
2020/12/26 13:51:52;;;;;;;3.75;1.20;;;;;;;;;;5048559;28;20354;-67
2020/12/26 13:54:19;;;;;;;2.28;0.57;;;;;;;;;;5047979;28;20033;-67
2020/12/26 13:56:44;;;;;;;2.22;0.90;;;;;;;;;;5043883;28;20532;-67
2020/12/26 13:59:09;;;;;;;6.93;1.58;;;;;;;;;;5046437;28;20024;-67
2020/12/26 14:01:35;;;;;;;3.63;1.08;;;;;;;;;;5036178;28;20080;-67
2020/12/26 14:04:00;;;;;;;3.72;0.90;;;;;;;;;;5034694;28;20021;-67
2020/12/26 14:06:34;;;;;;;3.60;0.52;;;;;;;;;;5035563;28;20029;-69
2020/12/26 14:09:00;;;;;;;4.68;0.75;;;;;;;;;;5032337;28;20645;-68
2020/12/26 14:11:26;;;;;;;2.78;0.90;;;;;;;;;;5033107;28;20029;-68
2020/12/26 14:13:51;;;;;;;3.88;0.68;;;;;;;;;;5034349;28;20098;-68
2020/12/26 14:16:34;;;;;;;1.67;1.20;;;;;;;;;;5036415;28;20029;-68
2020/12/26 14:18:59;;;;;;;3.53;1.15;;;;;;;;;;5033885;28;20223;-68
2020/12/26 14:21:31;;;;;;;2.05;0.80;;;;;;;;;;5034307;28;20032;-68
2020/12/26 14:23:56;;;;;;;14.60;1.45;;;;;;;;;;5035729;28;20529;-68